Terminal Aerodrome Forecast
Issued by NWS Pocatello, ID

Home | Current Version | Previous Version | Text Only | Print | Product List | Glossary On
Versions: 1 2 3 4 5 6 7 8 9 10 11 12 13 14 15 16 17
387
FTUS45 KPIH 191738
TAFBYI
TAF
KBYI 191738Z 1918/2018 07012KT P6SM BKN100
     FM200200 26011KT P6SM VCSH SCT050 BKN080
     FM201700 29010G20KT P6SM SKC=

USA.gov is the U.S. government's official web portal to all federal, state and local government web resources and services.